TimeCDT,TemperatureF,Dew PointF,Humidity,Sea Level PressureIn,VisibilityMPH,Wind Direction,Wind SpeedMPH,Gust SpeedMPH,PrecipitationIn,Events,Conditions,WindDirDegrees,DateUTC
1:15 AM,75.9,69.6,81,30.06,7.0,SE,11.5,-,N/A,,Overcast,140,2013-04-27 06:15:00
1:55 AM,75.7,69.8,82,30.04,7.0,SE,13.8,18.4,N/A,,Overcast,140,2013-04-27 06:55:00
2:35 AM,74.8,69.8,84,30.02,5.0,SE,9.2,-,N/A,,Haze,140,2013-04-27 07:35:00
2:55 AM,74.7,70.0,85,30.01,5.0,SSE,8.1,-,N/A,,Haze,150,2013-04-27 07:55:00
3:15 AM,75.2,70.2,84,30.00,5.0,SE,6.9,-,N/A,,Haze,140,2013-04-27 08:15:00
3:35 AM,75.2,70.2,84,30.00,5.0,SE,6.9,-,N/A,,Haze,140,2013-04-27 08:35:00
4:35 AM,75.4,70.7,85,29.98,5.0,SSE,9.2,-,N/A,,Overcast,150,2013-04-27 09:35:00
4:55 AM,75.4,70.7,85,29.97,5.0,SSE,9.2,-,N/A,,Overcast,150,2013-04-27 09:55:00
6:35 AM,76.1,71.1,84,29.96,5.0,SE,12.7,17.3,N/A,,Haze,140,2013-04-27 11:35:00
6:55 AM,76.1,70.9,84,29.96,5.0,SE,11.5,16.1,N/A,,Haze,140,2013-04-27 11:55:00
7:15 AM,76.3,70.9,83,29.98,3.0,SSE,10.4,-,N/A,,Haze,150,2013-04-27 12:15:00
7:55 AM,76.6,70.7,82,29.99,5.0,SSE,10.4,-,N/A,,Haze,150,2013-04-27 12:55:00
8:15 AM,76.6,70.7,82,30.00,4.0,SE,12.7,-,N/A,,Haze,140,2013-04-27 13:15:00
8:35 AM,77.0,70.7,81,30.00,4.0,SE,10.4,-,N/A,,Haze,140,2013-04-27 13:35:00
8:55 AM,77.4,70.7,80,30.00,4.0,SE,10.4,-,N/A,,Haze,140,2013-04-27 13:55:00
9:15 AM,77.9,70.7,78,30.00,5.0,SSE,10.4,-,N/A,,Haze,150,2013-04-27 14:15:00
9:35 AM,78.3,70.2,76,30.00,5.0,SSE,16.1,21.9,N/A,,Haze,150,2013-04-27 14:35:00
10:15 AM,80.8,70.2,70,30.01,5.0,SSE,13.8,23.0,N/A,,Haze,150,2013-04-27 15:15:00
10:35 AM,80.6,70.2,70,30.01,5.0,SE,12.7,17.3,N/A,,Haze,140,2013-04-27 15:35:00
10:55 AM,81.0,69.8,69,30.02,4.0,SSE,10.4,-,N/A,,Haze,160,2013-04-27 15:55:00
11:15 AM,81.5,69.8,67,30.02,5.0,South,11.5,-,N/A,,Haze,170,2013-04-27 16:15:00
11:35 AM,81.9,69.4,66,30.01,5.0,SSE,12.7,17.3,N/A,,Haze,160,2013-04-27 16:35:00
11:55 AM,83.5,69.8,63,30.01,5.0,SSE,8.1,-,N/A,,Haze,160,2013-04-27 16:55:00
12:15 PM,84.2,68.9,60,30.01,7.0,SSE,9.2,-,N/A,,Overcast,160,2013-04-27 17:15:00
12:35 PM,85.5,68.9,57,30.00,5.0,SSE,9.2,-,N/A,,Haze,150,2013-04-27 17:35:00
12:55 PM,86.2,68.2,55,30.00,7.0,South,10.4,17.3,N/A,,Overcast,170,2013-04-27 17:55:00
1:15 PM,85.8,68.2,55,29.99,7.0,SSE,10.4,-,N/A,,Overcast,160,2013-04-27 18:15:00
1:35 PM,85.8,68.0,55,29.99,7.0,SSE,11.5,16.1,N/A,,Overcast,160,2013-04-27 18:35:00
1:55 PM,87.6,68.0,52,29.98,5.0,SSE,11.5,-,N/A,,Haze,150,2013-04-27 18:55:00
2:15 PM,88.0,67.5,50,29.97,5.0,SSE,9.2,17.3,N/A,,Haze,150,2013-04-27 19:15:00
2:35 PM,87.3,67.8,52,29.96,7.0,SE,16.1,-,N/A,,Mostly Cloudy,140,2013-04-27 19:35:00
2:55 PM,88.3,67.5,50,29.95,7.0,SSE,15.0,19.6,N/A,,Overcast,150,2013-04-27 19:55:00
3:15 PM,87.3,67.5,52,29.95,5.0,SE,15.0,-,N/A,,Haze,130,2013-04-27 20:15:00
3:35 PM,86.4,67.3,53,29.94,5.0,SSE,13.8,-,N/A,,Haze,150,2013-04-27 20:35:00
3:55 PM,88.5,66.7,48,29.92,5.0,SE,17.3,-,N/A,,Haze,130,2013-04-27 20:55:00
4:15 PM,88.9,66.2,47,29.91,7.0,SE,15.0,23.0,N/A,,Mostly Cloudy,130,2013-04-27 21:15:00
4:35 PM,87.8,66.2,49,29.90,5.0,SSE,16.1,-,N/A,,Haze,150,2013-04-27 21:35:00
4:55 PM,88.0,66.0,48,29.90,5.0,SE,15.0,-,N/A,,Haze,140,2013-04-27 21:55:00
5:35 PM,86.4,66.2,51,29.90,7.0,SE,16.1,-,N/A,,Overcast,130,2013-04-27 22:35:00
5:55 PM,86.2,66.4,51,29.90,5.0,SE,17.3,-,N/A,,Haze,130,2013-04-27 22:55:00
6:15 PM,86.0,66.2,51,29.89,5.0,SE,16.1,-,N/A,,Haze,140,2013-04-27 23:15:00
6:35 PM,85.3,66.2,53,29.89,5.0,SE,16.1,-,N/A,,Haze,140,2013-04-27 23:35:00
6:55 PM,84.6,66.2,54,29.89,7.0,SE,18.4,21.9,N/A,,Clear,140,2013-04-27 23:55:00
7:15 PM,83.7,66.4,56,29.88,5.0,SE,17.3,-,N/A,,Haze,140,2013-04-28 00:15:00
7:35 PM,83.1,66.9,58,29.87,5.0,SE,15.0,-,N/A,,Haze,130,2013-04-28 00:35:00
7:55 PM,82.2,66.7,59,29.88,5.0,SSE,12.7,-,N/A,,Haze,150,2013-04-28 00:55:00
8:15 PM,81.3,66.7,61,29.89,7.0,SSE,11.5,-,N/A,,Clear,150,2013-04-28 01:15:00
8:35 PM,80.4,66.6,63,29.88,7.0,SSE,13.8,-,N/A,,Clear,150,2013-04-28 01:35:00
8:55 PM,79.7,66.7,64,29.88,7.0,SSE,13.8,-,N/A,,Clear,150,2013-04-28 01:55:00
9:15 PM,78.8,67.3,68,29.88,7.0,SE,9.2,-,N/A,,Clear,140,2013-04-28 02:15:00
10:15 PM,77.0,68.0,74,29.95,7.0,Calm,Calm,-,N/A,,Scattered Clouds,0,2013-04-28 03:15:00
10:35 PM,77.2,68.2,74,29.96,5.0,ENE,5.8,-,N/A,,Haze,60,2013-04-28 03:35:00
11:35 PM,76.6,68.9,77,29.99,7.0,NE,8.1,-,N/A,,Overcast,50,2013-04-28 04:35:00
11:55 PM,76.6,68.9,77,30.00,7.0,ESE,6.9,-,N/A,Thunderstorm,Overcast,110,2013-04-28 04:55:00